createdAt,value
2023-08-07T00:01:32.928Z,99934.59
2023-08-07T00:04:05.995Z,99940.00
2023-08-07T00:06:37.809Z,99944.16
2023-08-07T00:09:09.750Z,99937.94
2023-08-07T00:11:41.609Z,99944.31
2023-08-07T00:14:13.432Z,99947.66
2023-08-07T00:16:45.294Z,99947.91
2023-08-07T00:19:18.458Z,99944.75
2023-08-07T00:21:50.323Z,99938.59
2023-08-07T00:24:20.175Z,99933.66
2023-08-07T00:26:52.027Z,99938.28
2023-08-07T00:29:23.929Z,99941.44
2023-08-07T00:31:55.890Z,99948.72
2023-08-07T00:34:29.154Z,99948.50
2023-08-07T00:37:01.028Z,99953.06
2023-08-07T00:39:33.045Z,99951.78
2023-08-07T00:42:05.008Z,99947.69
2023-08-07T00:44:36.857Z,99954.31
2023-08-07T00:47:09.709Z,99941.94
2023-08-07T00:49:43.351Z,99951.22
2023-08-07T00:52:15.306Z,99950.41
2023-08-07T00:54:47.465Z,99956.88
2023-08-07T00:57:23.956Z,99951.91
2023-08-07T00:59:57.166Z,99952.75
2023-08-07T01:02:29.229Z,99956.47
2023-08-07T01:05:03.546Z,99953.59
2023-08-07T01:07:35.317Z,99959.66
2023-08-07T01:10:07.395Z,99955.91
2023-08-07T01:12:49.956Z,99964.63
2023-08-07T01:15:28.618Z,99960.69
2023-08-07T01:18:01.932Z,99963.63
2023-08-07T01:20:34.964Z,99957.41
2023-08-07T01:23:08.165Z,99955.31
2023-08-07T01:25:41.684Z,99950.78
2023-08-07T01:28:23.857Z,99947.03
2023-08-07T01:31:01.554Z,99939.56
2023-08-07T01:33:42.303Z,99937.47
2023-08-07T01:36:18.583Z,99943.25
2023-08-07T01:38:55.018Z,99939.94
2023-08-07T01:41:27.724Z,99942.66
2023-08-07T01:44:00.064Z,99946.81
2023-08-07T01:46:31.984Z,99948.09
2023-08-07T01:49:03.913Z,99947.44
2023-08-07T01:51:35.887Z,99948.25
2023-08-07T01:54:09.918Z,99950.34
2023-08-07T01:56:41.795Z,99945.38
2023-08-07T01:59:13.543Z,99940.00
2023-08-07T02:01:45.598Z,99939.78
2023-08-07T02:04:17.474Z,99932.09
2023-08-07T02:06:49.354Z,99940.59
2023-08-07T02:09:22.838Z,99940.84
2023-08-07T02:11:54.794Z,99938.34
2023-08-07T02:14:26.875Z,99946.63
2023-08-07T02:16:58.516Z,99942.91
2023-08-07T02:19:30.482Z,99937.50
2023-08-07T02:22:02.385Z,99943.75
2023-08-07T02:24:35.374Z,99935.00
2023-08-07T02:27:07.410Z,99936.28
2023-08-07T02:29:39.502Z,99932.56
2023-08-07T02:32:11.742Z,99938.97
2023-08-07T02:34:43.410Z,99943.34
2023-08-07T02:37:15.702Z,99934.63
2023-08-07T02:39:49.961Z,99945.84
2023-08-07T02:42:23.110Z,99951.44
2023-08-07T02:44:54.984Z,99945.84
2023-08-07T02:47:26.900Z,99942.13
2023-08-07T02:49:58.870Z,99953.91
2023-08-07T02:52:31.308Z,99947.09
2023-08-07T02:55:04.302Z,99958.72
2023-08-07T02:57:36.574Z,99953.28
2023-08-07T03:00:10.247Z,99963.88
2023-08-07T03:02:42.280Z,99962.84
2023-08-07T03:05:14.471Z,99960.34
2023-08-07T03:07:46.420Z,99961.19
2023-08-07T03:10:20.322Z,99962.84
2023-08-07T03:12:52.337Z,99959.75
2023-08-07T03:15:24.050Z,99960.78
2023-08-07T03:17:55.969Z,99957.88
2023-08-07T03:20:27.907Z,99955.56
2023-08-07T03:22:59.882Z,99953.31
2023-08-07T03:25:32.827Z,99967.59
2023-08-07T03:28:04.728Z,99974.44
2023-08-07T03:30:36.743Z,99967.59
2023-08-07T03:33:08.796Z,99968.66
2023-08-07T03:35:42.009Z,99972.19
2023-08-07T03:38:13.769Z,99970.72
2023-08-07T03:40:46.783Z,99967.59
2023-08-07T03:43:18.763Z,99973.22
2023-08-07T03:45:55.971Z,99977.13
2023-08-07T03:48:27.870Z,99979.88
2023-08-07T03:51:04.745Z,99986.47
2023-08-07T03:53:36.616Z,99985.03
2023-08-07T03:56:09.750Z,99990.63
2023-08-07T03:58:41.782Z,99989.16
2023-08-07T04:01:13.675Z,99979.63
2023-08-07T04:03:45.670Z,99983.16
2023-08-07T04:06:17.639Z,99981.91
2023-08-07T04:08:51.488Z,99981.72
2023-08-07T04:11:24.459Z,99980.06
2023-08-07T04:13:56.344Z,99980.91
2023-08-07T04:16:28.197Z,99983.59
2023-08-07T04:19:00.203Z,99989.41
2023-08-07T04:21:32.256Z,99979.22
2023-08-07T04:24:09.037Z,99979.03
2023-08-07T04:26:42.777Z,99980.06
2023-08-07T04:29:14.723Z,99991.44
2023-08-07T04:31:46.762Z,99993.94
2023-08-07T04:34:18.611Z,99986.28
2023-08-07T04:36:51.484Z,99995.81
2023-08-07T04:39:25.167Z,99993.31
2023-08-07T04:41:58.373Z,100000.16
2023-08-07T04:44:30.266Z,100003.47
2023-08-07T04:47:02.451Z,100001.41
2023-08-07T04:49:34.175Z,100007.44
2023-08-07T04:52:20.643Z,100013.84
2023-08-07T04:54:56.368Z,100011.78
2023-08-07T04:57:29.596Z,100014.25
2023-08-07T05:00:01.484Z,100015.94
2023-08-07T05:02:33.575Z,100013.44
2023-08-07T05:05:06.025Z,100012.81
2023-08-07T05:07:38.993Z,100022.34
2023-08-07T05:10:12.744Z,100016.75
2023-08-07T05:12:45.721Z,100021.94
2023-08-07T05:15:17.661Z,100011.16
2023-08-07T05:17:49.643Z,100017.56
2023-08-07T05:20:22.043Z,100015.09
2023-08-07T05:22:53.761Z,100016.13
2023-08-07T05:25:25.896Z,100013.44
2023-08-07T05:27:58.986Z,100021.31
2023-08-07T05:30:30.920Z,100021.94
2023-08-07T05:33:02.790Z,100020.50
2023-08-07T05:35:34.797Z,100018.41
2023-08-07T05:38:06.601Z,100023.59
2023-08-07T05:40:38.732Z,100029.59
2023-08-07T05:43:12.156Z,100034.19
2023-08-07T05:45:45.980Z,100035.41
2023-08-07T05:48:18.195Z,100036.25
2023-08-07T05:50:50.084Z,100046.63
2023-08-07T05:53:22.043Z,100045.78
2023-08-07T05:55:54.086Z,100048.28
2023-08-07T05:58:27.170Z,100041.03
2023-08-07T06:00:59.091Z,100042.72
2023-08-07T06:03:31.260Z,100048.50
2023-08-07T06:06:03.452Z,100047.69
2023-08-07T06:08:35.338Z,100056.19
2023-08-07T06:11:09.250Z,100048.28
2023-08-07T06:13:44.142Z,100049.53
2023-08-07T06:16:16.028Z,100062.19
2023-08-07T06:18:48.054Z,100053.50
2023-08-07T06:21:21.056Z,100055.75
2023-08-07T06:23:52.858Z,100056.56
2023-08-07T06:26:24.811Z,100058.25
2023-08-07T06:28:57.939Z,100060.75
2023-08-07T06:31:29.805Z,100053.69
2023-08-07T06:34:01.906Z,100050.56
2023-08-07T06:36:33.634Z,100061.97
2023-08-07T06:39:05.618Z,100053.25
2023-08-07T06:41:37.470Z,100055.78
2023-08-07T06:44:10.791Z,100052.84
2023-08-07T06:46:42.687Z,100057.03
2023-08-07T06:49:14.607Z,100054.94
2023-08-07T06:51:46.505Z,100060.94
2023-08-07T06:54:18.371Z,100063.88
2023-08-07T06:56:50.340Z,100060.34
2023-08-07T06:59:23.329Z,100061.34
2023-08-07T07:01:55.499Z,100068.00
2023-08-07T07:04:29.057Z,100069.25
2023-08-07T07:07:00.830Z,100063.84
2023-08-07T07:09:32.994Z,100072.78
2023-08-07T07:12:04.736Z,100078.59
2023-08-07T07:14:38.288Z,100077.56
2023-08-07T07:17:10.197Z,100076.50
2023-08-07T07:19:42.150Z,100085.69
2023-08-07T07:22:14.120Z,100084.22
2023-08-07T07:24:46.222Z,100081.13
2023-08-07T07:27:17.955Z,100080.69
2023-08-07T07:29:51.197Z,100084.22
2023-08-07T07:32:23.151Z,100087.09
2023-08-07T07:34:55.059Z,100093.56
2023-08-07T07:37:26.947Z,100097.91
2023-08-07T07:39:58.640Z,100107.66
2023-08-07T07:42:30.648Z,100096.66
2023-08-07T07:45:04.107Z,100094.34
2023-08-07T07:47:35.863Z,100099.78
2023-08-07T07:50:14.795Z,100096.00
2023-08-07T07:52:47.525Z,100097.44
2023-08-07T07:55:19.494Z,100093.50
2023-08-07T07:57:52.873Z,100089.56
2023-08-07T08:00:28.086Z,100095.56
2023-08-07T08:03:00.743Z,100104.72
2023-08-07T08:05:35.448Z,100106.59
2023-08-07T08:08:09.293Z,100109.69
2023-08-07T08:10:41.179Z,100118.81
2023-08-07T08:13:15.052Z,100127.53
2023-08-07T08:15:49.202Z,100123.78
2023-08-07T08:18:21.202Z,100127.53
2023-08-07T08:20:53.392Z,100120.44
2023-08-07T08:23:25.082Z,100113.19
2023-08-07T08:25:57.076Z,100115.88
2023-08-07T08:28:29.151Z,100124.59
2023-08-07T08:31:02.403Z,100120.84
2023-08-07T08:33:34.424Z,100120.00
2023-08-07T08:36:06.615Z,100117.09
2023-08-07T08:38:38.515Z,100112.72
2023-08-07T08:41:12.823Z,100132.84
2023-08-07T08:43:47.818Z,100131.00
2023-08-07T08:46:26.542Z,100136.56
2023-08-07T08:49:03.840Z,100146.78
2023-08-07T08:51:36.646Z,100142.00
2023-08-07T08:54:10.255Z,100153.44
2023-08-07T08:56:43.885Z,100145.31
2023-08-07T08:59:19.221Z,100150.50
2023-08-07T09:01:55.079Z,100143.97
2023-08-07T09:04:27.053Z,100143.56
2023-08-07T09:06:59.169Z,100149.84
2023-08-07T09:09:33.373Z,100173.59
2023-08-07T09:12:06.818Z,100196.03
2023-08-07T09:14:46.931Z,100184.44
2023-08-07T09:17:22.468Z,100188.81
2023-08-07T09:19:54.432Z,100187.56
2023-08-07T09:22:26.440Z,100178.22
2023-08-07T09:25:00.984Z,100181.97
2023-08-07T09:27:32.758Z,100173.25
2023-08-07T09:30:04.713Z,100176.59
2023-08-07T09:32:37.857Z,100188.59
2023-08-07T09:35:11.675Z,100193.81
2023-08-07T09:37:45.118Z,100194.81
2023-08-07T09:40:18.186Z,100182.38
2023-08-07T09:42:55.728Z,100185.25
2023-08-07T09:45:30.020Z,100194.00
2023-08-07T09:48:07.865Z,100187.97
2023-08-07T09:50:40.003Z,100180.69
2023-08-07T09:53:12.212Z,100182.31
2023-08-07T09:55:44.226Z,100187.09
2023-08-07T09:58:19.127Z,100188.06
2023-08-07T10:00:54.214Z,100187.44
2023-08-07T10:03:27.944Z,100191.44
2023-08-07T10:06:01.746Z,100196.44
2023-08-07T10:08:36.367Z,100197.66
2023-08-07T10:11:10.989Z,100191.00
2023-08-07T10:13:43.270Z,100192.88
2023-08-07T10:16:16.355Z,100202.25
2023-08-07T10:18:49.431Z,100208.50
2023-08-07T10:21:21.518Z,100209.97
2023-08-07T10:23:58.547Z,100207.47
2023-08-07T10:26:31.352Z,100209.31
2023-08-07T10:29:06.614Z,100212.84
2023-08-07T10:31:43.173Z,100208.06
2023-08-07T10:34:16.698Z,100213.84
2023-08-07T10:36:48.569Z,100205.88
2023-08-07T10:39:23.660Z,100220.44
2023-08-07T10:41:59.093Z,100229.66
2023-08-07T10:44:32.175Z,100235.09
2023-08-07T10:47:04.869Z,100236.38
2023-08-07T10:49:38.533Z,100228.88
2023-08-07T10:52:16.864Z,100237.63
2023-08-07T10:54:52.467Z,100239.47
2023-08-07T10:57:24.844Z,100231.34
2023-08-07T11:00:09.007Z,100235.91
2023-08-07T11:02:45.555Z,100243.22
2023-08-07T11:05:19.904Z,100236.78
2023-08-07T11:07:51.778Z,100224.06
2023-08-07T11:10:23.522Z,100235.50
2023-08-07T11:13:00.067Z,100225.75
2023-08-07T11:15:31.974Z,100233.88
2023-08-07T11:18:03.885Z,100225.97
2023-08-07T11:20:39.348Z,100228.47
2023-08-07T11:23:12.115Z,100221.41
2023-08-07T11:25:45.205Z,100228.88
2023-08-07T11:28:19.500Z,100215.09
2023-08-07T11:30:54.133Z,100226.13
2023-08-07T11:33:27.116Z,100226.31
2023-08-07T11:36:01.621Z,100230.88
2023-08-07T11:38:39.673Z,100223.09
2023-08-07T11:41:14.946Z,100244.59
2023-08-07T11:43:47.819Z,100226.59
2023-08-07T11:46:20.398Z,100238.03
2023-08-07T11:48:55.877Z,100237.19
2023-08-07T11:51:30.172Z,100248.53
2023-08-07T11:54:05.080Z,100251.50
2023-08-07T11:56:36.962Z,100257.50
2023-08-07T11:59:08.872Z,100262.66
2023-08-07T12:01:43.835Z,100260.72
2023-08-07T12:04:19.643Z,100253.56
2023-08-07T12:07:00.674Z,100262.84
2023-08-07T12:09:34.806Z,100261.81
2023-08-07T12:12:10.626Z,100267.16
2023-08-07T12:14:42.526Z,100255.38
2023-08-07T12:17:15.361Z,100259.56
2023-08-07T12:19:48.042Z,100266.63
2023-08-07T12:22:25.621Z,100286.63
2023-08-07T12:24:57.573Z,100294.63
2023-08-07T12:27:29.489Z,100288.28
2023-08-07T12:30:01.438Z,100315.16
2023-08-07T12:32:33.106Z,100313.53
2023-08-07T12:37:43.053Z,100304.00
2023-08-07T12:42:55.523Z,100310.72
2023-08-07T12:48:02.544Z,100312.16
2023-08-07T12:50:34.638Z,100312.25
2023-08-07T12:53:09.119Z,100312.19
2023-08-07T12:55:41.181Z,100316.84
2023-08-07T12:58:13.073Z,100315.63
2023-08-07T13:00:45.526Z,100323.75
2023-08-07T13:03:17.392Z,100327.94
2023-08-07T13:05:49.422Z,100324.53
2023-08-07T13:08:22.724Z,100324.31
2023-08-07T13:10:54.976Z,100322.09
2023-08-07T13:13:28.934Z,100320.69
2023-08-07T13:16:00.583Z,100309.94
2023-08-07T13:18:32.510Z,100332.41
2023-08-07T13:21:04.420Z,100329.09
2023-08-07T13:23:37.410Z,100324.81
2023-08-07T13:26:09.418Z,100327.81
2023-08-07T13:28:41.281Z,100342.16
2023-08-07T13:31:13.352Z,100352.09
2023-08-07T13:33:45.011Z,100369.50
2023-08-07T13:36:17.117Z,100366.34
2023-08-07T13:38:50.064Z,100372.66
2023-08-07T13:41:21.972Z,100380.97
2023-08-07T13:43:53.839Z,100385.97
2023-08-07T13:46:25.961Z,100379.72
2023-08-07T13:48:58.790Z,100379.31
2023-08-07T13:51:30.454Z,100390.91
2023-08-07T13:54:03.519Z,100390.91
2023-08-07T13:56:36.095Z,100387.53
2023-08-07T13:59:08.924Z,100393.31
2023-08-07T14:01:40.560Z,100389.94
2023-08-07T14:04:12.586Z,100386.59
2023-08-07T14:06:45.516Z,100393.69
2023-08-07T14:09:19.739Z,100395.75
2023-08-07T14:11:51.439Z,100393.28
2023-08-07T14:14:23.463Z,100396.66
2023-08-07T14:16:58.428Z,100410.00
2023-08-07T14:19:30.551Z,100410.41
2023-08-07T14:22:02.441Z,100406.66
2023-08-07T14:24:35.428Z,100413.53
2023-08-07T14:27:08.362Z,100428.13
2023-08-07T14:29:40.365Z,100419.38
2023-08-07T14:32:12.075Z,100426.47
2023-08-07T14:34:43.947Z,100425.44
2023-08-07T14:37:15.888Z,100432.50
2023-08-07T14:39:48.981Z,100426.03
2023-08-07T14:42:20.903Z,100428.63
2023-08-07T14:44:52.810Z,100426.91
2023-08-07T14:47:24.781Z,100420.69
2023-08-07T14:49:56.705Z,100430.72
2023-08-07T14:52:28.621Z,100441.16
2023-08-07T14:55:02.575Z,100451.53
2023-08-07T14:57:34.272Z,100426.38
2023-08-07T15:00:07.197Z,100432.56
2023-08-07T15:02:40.974Z,100432.94
2023-08-07T15:05:13.178Z,100432.59
2023-08-07T15:07:45.174Z,100441.41
2023-08-07T15:10:18.498Z,100467.53
2023-08-07T15:12:50.382Z,100452.00
2023-08-07T15:15:22.287Z,100457.44
2023-08-07T15:17:54.615Z,100464.94
2023-08-07T15:20:26.473Z,100462.44
2023-08-07T15:22:58.386Z,100466.97
2023-08-07T15:25:31.961Z,100458.63
2023-08-07T15:28:04.967Z,100479.69
2023-08-07T15:30:36.716Z,100467.41
2023-08-07T15:33:09.523Z,100471.84
2023-08-07T15:35:41.433Z,100479.97
2023-08-07T15:38:13.837Z,100492.50
2023-08-07T15:40:47.220Z,100498.94
2023-08-07T15:43:19.216Z,100483.38
2023-08-07T15:45:54.351Z,100490.22
2023-08-07T15:48:26.330Z,100495.25
2023-08-07T15:50:58.203Z,100494.19
2023-08-07T15:53:30.237Z,100494.19
2023-08-07T15:56:03.247Z,100510.22
2023-08-07T15:58:35.159Z,100514.56
2023-08-07T16:01:07.153Z,100505.44
2023-08-07T16:03:39.222Z,100516.69
2023-08-07T16:06:11.060Z,100507.72
2023-08-07T16:08:42.973Z,100510.22
2023-08-07T16:11:16.022Z,100516.25
2023-08-07T16:13:48.167Z,100517.47
2023-08-07T16:16:20.060Z,100515.59
2023-08-07T16:18:52.035Z,100518.72
2023-08-07T16:21:24.045Z,100521.19
2023-08-07T16:23:55.944Z,100522.03
2023-08-07T16:26:28.971Z,100526.59
2023-08-07T16:29:00.836Z,100529.53
2023-08-07T16:31:32.985Z,100522.88
2023-08-07T16:34:04.863Z,100526.81
2023-08-07T16:36:36.762Z,100527.06
2023-08-07T16:39:08.530Z,100522.47
2023-08-07T16:41:46.293Z,100519.38
2023-08-07T16:44:18.406Z,100524.59
2023-08-07T16:46:50.398Z,100538.09
2023-08-07T16:49:22.181Z,100557.69
2023-08-07T16:51:55.877Z,100556.16
2023-08-07T16:54:28.390Z,100558.09
2023-08-07T16:57:01.699Z,100567.81
2023-08-07T16:59:33.546Z,100571.25
2023-08-07T17:02:07.842Z,100570.44
2023-08-07T17:04:39.714Z,100580.69
2023-08-07T17:07:12.071Z,100596.09
2023-08-07T17:09:43.952Z,100598.63
2023-08-07T17:12:17.358Z,100580.88
2023-08-07T17:14:49.243Z,100567.50
2023-08-07T17:17:21.228Z,100562.28
2023-08-07T17:19:53.062Z,100547.00
2023-08-07T17:22:24.927Z,100549.44
2023-08-07T17:24:56.958Z,100545.81
2023-08-07T17:27:30.237Z,100550.59
2023-08-07T17:30:02.118Z,100560.31
2023-08-07T17:32:34.051Z,100565.13
2023-08-07T17:35:06.084Z,100552.06
2023-08-07T17:37:37.962Z,100567.84
2023-08-07T17:40:12.839Z,100554.41
2023-08-07T17:42:45.834Z,100556.44
2023-08-07T17:45:17.736Z,100552.72
2023-08-07T17:47:49.782Z,100556.88
2023-08-07T17:50:22.017Z,100552.63
2023-08-07T17:52:53.698Z,100563.88
2023-08-07T17:55:26.368Z,100560.19
2023-08-07T17:58:00.292Z,100564.22
2023-08-07T18:00:31.969Z,100562.41
2023-08-07T18:03:04.221Z,100564.47
2023-08-07T18:05:38.396Z,100558.69
2023-08-07T18:08:11.505Z,100563.88
2023-08-07T18:10:43.665Z,100551.47
2023-08-07T18:13:16.687Z,100557.63
2023-08-07T18:15:48.631Z,100545.91
2023-08-07T18:18:20.561Z,100546.34
2023-08-07T18:20:52.410Z,100538.88
2023-08-07T18:23:24.299Z,100534.03
2023-08-07T18:25:56.204Z,100544.50
2023-08-07T18:28:32.205Z,100543.41
2023-08-07T18:31:04.435Z,100545.63
2023-08-07T18:33:37.137Z,100543.31
2023-08-07T18:36:09.228Z,100545.22
2023-08-07T18:38:41.122Z,100537.78
2023-08-07T18:41:13.154Z,100549.28
2023-08-07T18:43:46.422Z,100547.97
2023-08-07T18:46:18.556Z,100548.38
2023-08-07T18:48:50.211Z,100549.84
2023-08-07T18:51:22.536Z,100552.09
2023-08-07T18:53:54.403Z,100552.81
2023-08-07T18:56:26.404Z,100544.72
2023-08-07T18:58:59.903Z,100550.66
2023-08-07T19:01:32.008Z,100557.50
2023-08-07T19:04:03.913Z,100564.06
2023-08-07T19:06:36.099Z,100564.22
2023-08-07T19:09:09.195Z,100562.16
2023-08-07T19:11:41.388Z,100568.56
2023-08-07T19:14:14.389Z,100579.53
2023-08-07T19:16:47.006Z,100572.69
2023-08-07T19:19:19.017Z,100571.63
2023-08-07T19:21:51.047Z,100565.34
2023-08-07T19:24:22.926Z,100579.72
2023-08-07T19:26:54.829Z,100586.16
2023-08-07T19:29:27.852Z,100584.41
2023-08-07T19:32:00.003Z,100584.31
2023-08-07T19:34:31.723Z,100580.59
2023-08-07T19:37:03.933Z,100580.88
2023-08-07T19:39:35.739Z,100576.50
2023-08-07T19:42:08.875Z,100575.56
2023-08-07T19:44:43.858Z,100569.44
2023-08-07T19:47:22.432Z,100577.78
2023-08-07T19:49:58.489Z,100580.31
2023-08-07T19:52:30.168Z,100572.41
2023-08-07T19:55:02.115Z,100581.31
2023-08-07T19:57:34.101Z,100576.09
2023-08-07T20:00:08.490Z,100576.31
2023-08-07T20:02:40.143Z,100584.97
2023-08-07T20:05:12.501Z,100573.94
2023-08-07T20:07:44.414Z,100586.34
2023-08-07T20:10:23.925Z,100578.38
2023-08-07T20:12:55.985Z,100576.03
2023-08-07T20:15:29.538Z,100578.72
2023-08-07T20:18:01.489Z,100589.13
2023-08-07T20:20:33.397Z,100598.59
2023-08-07T20:23:05.532Z,100590.25
2023-08-07T20:25:37.249Z,100590.44
2023-08-07T20:28:10.648Z,100594.69
2023-08-07T20:30:43.881Z,100591.28
2023-08-07T20:33:15.619Z,100599.91
2023-08-07T20:35:47.309Z,100593.97
2023-08-07T20:38:19.231Z,100601.13
2023-08-07T20:40:51.126Z,100606.59
2023-08-07T20:43:23.150Z,100615.06
2023-08-07T20:45:56.217Z,100614.84
2023-08-07T20:48:28.086Z,100611.97
2023-08-07T20:50:59.933Z,100608.00
2023-08-07T20:53:31.975Z,100608.00
2023-08-07T20:56:03.957Z,100606.31
2023-08-07T20:58:36.193Z,100605.59
2023-08-07T21:01:11.136Z,100604.28
2023-08-07T21:03:43.059Z,100601.13
2023-08-07T21:06:15.050Z,100607.91
2023-08-07T21:08:48.408Z,100604.84
2023-08-07T21:11:20.035Z,100614.75
2023-08-07T21:13:51.956Z,100612.28
2023-08-07T21:16:25.353Z,100614.88
2023-08-07T21:18:57.657Z,100613.47
2023-08-07T21:21:29.565Z,100613.47
2023-08-07T21:24:01.728Z,100610.78
2023-08-07T21:26:33.717Z,100607.63
2023-08-07T21:29:05.600Z,100613.19
2023-08-07T21:31:39.058Z,100602.78
2023-08-07T21:34:11.099Z,100605.84
2023-08-07T21:36:43.259Z,100605.84
2023-08-07T21:39:14.969Z,100602.13
2023-08-07T21:41:46.829Z,100612.41
2023-08-07T21:44:18.781Z,100603.72
2023-08-07T21:46:52.046Z,100604.94
2023-08-07T21:49:23.938Z,100604.56
2023-08-07T21:51:56.037Z,100609.84
2023-08-07T21:54:28.271Z,100602.59
2023-08-07T21:57:00.088Z,100609.00
2023-08-07T21:59:31.956Z,100606.75
2023-08-07T22:02:05.526Z,100603.31
2023-08-07T22:04:37.268Z,100607.13
2023-08-07T22:07:09.999Z,100607.13
2023-08-07T22:09:41.928Z,100605.69
2023-08-07T22:12:14.686Z,100604.84
2023-08-07T22:14:46.597Z,100608.66
2023-08-07T22:17:19.632Z,100606.59
2023-08-07T22:20:02.789Z,100607.53
2023-08-07T22:22:36.101Z,100602.31
2023-08-07T22:25:10.935Z,100605.38
2023-08-07T22:27:43.145Z,100609.81
2023-08-07T22:30:17.142Z,100597.38
2023-08-07T22:32:51.301Z,100592.00
2023-08-07T22:35:23.714Z,100586.13
2023-08-07T22:37:55.721Z,100582.28
2023-08-07T22:40:27.606Z,100589.03
2023-08-07T22:42:59.454Z,100585.50
2023-08-07T22:45:31.798Z,100595.03
2023-08-07T22:48:05.908Z,100591.72
2023-08-07T22:50:38.309Z,100594.75
2023-08-07T22:53:10.157Z,100578.63
2023-08-07T22:55:43.353Z,100586.69
2023-08-07T22:58:15.938Z,100574.28
2023-08-07T23:00:47.930Z,100569.59
2023-08-07T23:03:21.224Z,100569.53
2023-08-07T23:05:52.943Z,100573.94
2023-08-07T23:08:24.990Z,100567.63
2023-08-07T23:10:56.860Z,100571.97
2023-08-07T23:13:28.756Z,100569.28
2023-08-07T23:16:00.789Z,100572.63
2023-08-07T23:18:33.894Z,100572.31
2023-08-07T23:21:05.717Z,100564.25
2023-08-07T23:23:37.634Z,100559.97
2023-08-07T23:26:09.531Z,100561.63
2023-08-07T23:28:41.533Z,100556.97
2023-08-07T23:31:13.870Z,100548.19
2023-08-07T23:33:47.606Z,100552.97
2023-08-07T23:36:19.466Z,100552.34
2023-08-07T23:38:52.102Z,100555.38
2023-08-07T23:41:23.804Z,100549.47
2023-08-07T23:43:55.480Z,100554.84
2023-08-07T23:46:27.757Z,100550.97
2023-08-07T23:49:00.988Z,100548.28
2023-08-07T23:51:32.827Z,100538.06
2023-08-07T23:54:04.751Z,100540.75
2023-08-07T23:56:36.676Z,100528.16
2023-08-07T23:59:08.404Z,100528.78
